sensor_id;sensor_type;location;lat;lon;timestamp;pressure;altitude;pressure_sealevel;temperature;humidity
788;BME280;16074;42.708;23.312;2023-08-12T00:00:32;142466.19;;;17.18;100.00
788;BME280;16074;42.708;23.312;2023-08-12T00:03:03;142451.66;;;17.12;100.00
788;BME280;16074;42.708;23.312;2023-08-12T00:05:32;142439.53;;;17.07;100.00
788;BME280;16074;42.708;23.312;2023-08-12T00:08:02;142433.44;;;17.05;100.00
788;BME280;16074;42.708;23.312;2023-08-12T00:10:31;142425.00;;;17.01;100.00
788;BME280;16074;42.708;23.312;2023-08-12T00:12:59;142420.16;;;16.99;100.00
788;BME280;16074;42.708;23.312;2023-08-12T00:15:28;142417.72;;;16.98;100.00
788;BME280;16074;42.708;23.312;2023-08-12T00:17:56;142414.13;;;16.97;100.00
788;BME280;16074;42.708;23.312;2023-08-12T00:20:26;142412.88;;;16.96;100.00
788;BME280;16074;42.708;23.312;2023-08-12T00:22:54;142410.47;;;16.95;100.00
788;BME280;16074;42.708;23.312;2023-08-12T00:25:23;142410.47;;;16.95;100.00
788;BME280;16074;42.708;23.312;2023-08-12T00:27:51;142403.19;;;16.92;100.00
788;BME280;16074;42.708;23.312;2023-08-12T00:30:20;142403.19;;;16.92;100.00
788;BME280;16074;42.708;23.312;2023-08-12T00:32:48;142405.59;;;16.93;100.00
788;BME280;16074;42.708;23.312;2023-08-12T00:35:17;142398.34;;;16.90;100.00
788;BME280;16074;42.708;23.312;2023-08-12T00:37:46;142394.72;;;16.89;100.00
788;BME280;16074;42.708;23.312;2023-08-12T00:40:15;142391.06;;;16.87;100.00
788;BME280;16074;42.708;23.312;2023-08-12T00:42:43;142391.06;;;16.87;100.00
788;BME280;16074;42.708;23.312;2023-08-12T00:45:11;142404.41;;;16.93;100.00
788;BME280;16074;42.708;23.312;2023-08-12T00:47:41;142409.28;;;16.95;100.00
788;BME280;16074;42.708;23.312;2023-08-12T00:50:12;142425.00;;;17.01;100.00
788;BME280;16074;42.708;23.312;2023-08-12T00:52:42;142452.84;;;17.13;100.00
788;BME280;16074;42.708;23.312;2023-08-12T00:55:14;142472.22;;;17.21;100.00
788;BME280;16074;42.708;23.312;2023-08-12T00:57:42;142480.72;;;17.24;100.00
788;BME280;16074;42.708;23.312;2023-08-12T01:00:12;142498.94;;;17.32;100.00
788;BME280;16074;42.708;23.312;2023-08-12T01:02:42;142518.31;;;17.40;100.00
788;BME280;16074;42.708;23.312;2023-08-12T01:05:15;142452.84;;;17.13;100.00
788;BME280;16074;42.708;23.312;2023-08-12T01:07:44;142435.88;;;17.06;100.00
788;BME280;16074;42.708;23.312;2023-08-12T01:10:15;142410.47;;;16.95;100.00
788;BME280;16074;42.708;23.312;2023-08-12T01:12:47;142411.69;;;16.96;100.00
788;BME280;16074;42.708;23.312;2023-08-12T01:15:21;142449.22;;;17.11;100.00
788;BME280;16074;42.708;23.312;2023-08-12T01:17:53;142467.38;;;17.19;100.00
788;BME280;16074;42.708;23.312;2023-08-12T01:20:23;142460.09;;;17.16;100.00
788;BME280;16074;42.708;23.312;2023-08-12T01:22:57;142428.59;;;17.03;100.00
788;BME280;16074;42.708;23.312;2023-08-12T01:25:28;142383.81;;;16.84;100.00
788;BME280;16074;42.708;23.312;2023-08-12T01:27:57;142354.72;;;16.73;100.00
788;BME280;16074;42.708;23.312;2023-08-12T01:30:26;142339.00;;;16.66;100.00
788;BME280;16074;42.708;23.312;2023-08-12T01:32:58;142328.13;;;16.62;100.00
788;BME280;16074;42.708;23.312;2023-08-12T01:35:35;142326.91;;;16.61;100.00
788;BME280;16074;42.708;23.312;2023-08-12T01:38:05;142329.31;;;16.62;100.00
788;BME280;16074;42.708;23.312;2023-08-12T01:40:36;142324.47;;;16.60;100.00
788;BME280;16074;42.708;23.312;2023-08-12T01:43:06;142320.84;;;16.59;100.00
788;BME280;16074;42.708;23.312;2023-08-12T01:45:35;142368.06;;;16.78;100.00
788;BME280;16074;42.708;23.312;2023-08-12T01:48:05;142391.06;;;16.87;100.00
788;BME280;16074;42.708;23.312;2023-08-12T01:50:33;142385.03;;;16.85;100.00
788;BME280;16074;42.708;23.312;2023-08-12T01:53:02;142397.16;;;16.90;100.00
788;BME280;16074;42.708;23.312;2023-08-12T01:55:30;142394.72;;;16.89;100.00
788;BME280;16074;42.708;23.312;2023-08-12T01:58:00;142395.91;;;16.89;100.00
788;BME280;16074;42.708;23.312;2023-08-12T02:00:29;142416.53;;;16.98;100.00
788;BME280;16074;42.708;23.312;2023-08-12T02:02:57;142420.16;;;16.99;100.00
788;BME280;16074;42.708;23.312;2023-08-12T02:05:26;142444.38;;;17.09;100.00
788;BME280;16074;42.708;23.312;2023-08-12T02:07:54;142462.53;;;17.17;100.00
788;BME280;16074;42.708;23.312;2023-08-12T02:10:24;142429.84;;;17.03;100.00
788;BME280;16074;42.708;23.312;2023-08-12T02:12:53;142431.03;;;17.04;100.00
788;BME280;16074;42.708;23.312;2023-08-12T02:15:23;142466.19;;;17.18;100.00
788;BME280;16074;42.708;23.312;2023-08-12T02:17:51;142475.88;;;17.22;100.00
788;BME280;16074;42.708;23.312;2023-08-12T02:20:19;142484.34;;;17.26;100.00
788;BME280;16074;42.708;23.312;2023-08-12T02:22:48;142477.06;;;17.23;100.00
788;BME280;16074;42.708;23.312;2023-08-12T02:25:16;142455.25;;;17.14;100.00
788;BME280;16074;42.708;23.312;2023-08-12T02:27:44;142474.66;;;17.22;100.00
788;BME280;16074;42.708;23.312;2023-08-12T02:30:13;142483.16;;;17.25;100.00
788;BME280;16074;42.708;23.312;2023-08-12T02:32:43;142473.47;;;17.21;100.00
788;BME280;16074;42.708;23.312;2023-08-12T02:35:11;142475.88;;;17.22;100.00
788;BME280;16074;42.708;23.312;2023-08-12T02:37:40;142438.28;;;17.07;100.00
788;BME280;16074;42.708;23.312;2023-08-12T02:40:09;142428.59;;;17.03;100.00
788;BME280;16074;42.708;23.312;2023-08-12T02:42:38;142425.00;;;17.01;100.00
788;BME280;16074;42.708;23.312;2023-08-12T02:45:07;142420.16;;;16.99;100.00
788;BME280;16074;42.708;23.312;2023-08-12T02:47:35;142406.84;;;16.94;100.00
788;BME280;16074;42.708;23.312;2023-08-12T02:50:07;142383.81;;;16.84;100.00
788;BME280;16074;42.708;23.312;2023-08-12T02:52:35;142366.84;;;16.77;100.00
788;BME280;16074;42.708;23.312;2023-08-12T02:55:04;142331.75;;;16.63;100.00
788;BME280;16074;42.708;23.312;2023-08-12T02:57:32;142345.09;;;16.69;100.00
788;BME280;16074;42.708;23.312;2023-08-12T03:00:01;142307.50;;;16.53;100.00
788;BME280;16074;42.708;23.312;2023-08-12T03:02:31;142271.22;;;16.38;100.00
788;BME280;16074;42.708;23.312;2023-08-12T03:04:59;142251.81;;;16.30;100.00
788;BME280;16074;42.708;23.312;2023-08-12T03:07:29;142276.06;;;16.40;100.00
788;BME280;16074;42.708;23.312;2023-08-12T03:09:58;142296.63;;;16.49;100.00
788;BME280;16074;42.708;23.312;2023-08-12T03:12:26;142267.56;;;16.37;100.00
788;BME280;16074;42.708;23.312;2023-08-12T03:14:55;142250.56;;;16.30;100.00
788;BME280;16074;42.708;23.312;2023-08-12T03:17:23;142250.56;;;16.30;100.00
788;BME280;16074;42.708;23.312;2023-08-12T03:19:52;142262.72;;;16.35;100.00
788;BME280;16074;42.708;23.312;2023-08-12T03:22:21;142282.09;;;16.43;100.00
788;BME280;16074;42.708;23.312;2023-08-12T03:24:51;142267.56;;;16.37;100.00
788;BME280;16074;42.708;23.312;2023-08-12T03:27:20;142299.06;;;16.50;100.00
788;BME280;16074;42.708;23.312;2023-08-12T03:29:49;142317.22;;;16.57;100.00
788;BME280;16074;42.708;23.312;2023-08-12T03:32:17;142329.31;;;16.62;100.00
788;BME280;16074;42.708;23.312;2023-08-12T03:34:46;142331.75;;;16.63;100.00
788;BME280;16074;42.708;23.312;2023-08-12T03:37:15;142339.00;;;16.66;100.00
788;BME280;16074;42.708;23.312;2023-08-12T03:39:43;142302.66;;;16.51;100.00
788;BME280;16074;42.708;23.312;2023-08-12T03:42:13;142325.72;;;16.61;100.00
788;BME280;16074;42.708;23.312;2023-08-12T03:44:44;142329.31;;;16.62;100.00
788;BME280;16074;42.708;23.312;2023-08-12T03:47:12;142334.16;;;16.64;100.00
788;BME280;16074;42.708;23.312;2023-08-12T03:49:41;142324.47;;;16.60;100.00
788;BME280;16074;42.708;23.312;2023-08-12T03:52:09;142345.09;;;16.69;100.00
788;BME280;16074;42.708;23.312;2023-08-12T03:54:38;142345.09;;;16.69;100.00
788;BME280;16074;42.708;23.312;2023-08-12T03:57:06;142348.69;;;16.70;100.00
788;BME280;16074;42.708;23.312;2023-08-12T03:59:37;142362.00;;;16.75;100.00
788;BME280;16074;42.708;23.312;2023-08-12T04:02:06;142360.81;;;16.75;100.00
788;BME280;16074;42.708;23.312;2023-08-12T04:04:34;142371.69;;;16.79;100.00
788;BME280;16074;42.708;23.312;2023-08-12T04:07:02;142371.69;;;16.79;100.00
788;BME280;16074;42.708;23.312;2023-08-12T04:09:31;142387.47;;;16.86;100.00
788;BME280;16074;42.708;23.312;2023-08-12T04:11:59;142392.31;;;16.88;100.00
788;BME280;16074;42.708;23.312;2023-08-12T04:14:27;142400.75;;;16.91;100.00
788;BME280;16074;42.708;23.312;2023-08-12T04:16:57;142405.59;;;16.93;100.00
788;BME280;16074;42.708;23.312;2023-08-12T04:19:26;142415.31;;;16.97;100.00
788;BME280;16074;42.708;23.312;2023-08-12T04:21:54;142433.44;;;17.05;100.00
788;BME280;16074;42.708;23.312;2023-08-12T04:24:23;142439.53;;;17.07;100.00
788;BME280;16074;42.708;23.312;2023-08-12T04:26:51;142435.88;;;17.06;100.00
788;BME280;16074;42.708;23.312;2023-08-12T04:29:20;142437.13;;;17.06;100.00
788;BME280;16074;42.708;23.312;2023-08-12T04:31:48;142443.16;;;17.09;100.00
788;BME280;16074;42.708;23.312;2023-08-12T04:34:18;142443.16;;;17.09;100.00
788;BME280;16074;42.708;23.312;2023-08-12T04:36:46;142428.59;;;17.03;100.00
788;BME280;16074;42.708;23.312;2023-08-12T04:39:15;142422.56;;;17.00;100.00
788;BME280;16074;42.708;23.312;2023-08-12T04:41:43;142435.88;;;17.06;100.00
788;BME280;16074;42.708;23.312;2023-08-12T04:44:12;142416.53;;;16.98;100.00
788;BME280;16074;42.708;23.312;2023-08-12T04:46:41;142432.25;;;17.04;100.00
788;BME280;16074;42.708;23.312;2023-08-12T04:49:09;142434.69;;;17.05;100.00
788;BME280;16074;42.708;23.312;2023-08-12T04:51:39;142398.34;;;16.90;100.00
788;BME280;16074;42.708;23.312;2023-08-12T04:54:07;142432.25;;;17.04;100.00
788;BME280;16074;42.708;23.312;2023-08-12T04:56:36;142445.56;;;17.10;100.00
788;BME280;16074;42.708;23.312;2023-08-12T04:59:04;142439.53;;;17.07;100.00
788;BME280;16074;42.708;23.312;2023-08-12T05:01:33;142449.22;;;17.11;100.00
788;BME280;16074;42.708;23.312;2023-08-12T05:04:02;142452.84;;;17.13;100.00
788;BME280;16074;42.708;23.312;2023-08-12T05:06:30;142450.41;;;17.12;100.00
788;BME280;16074;42.708;23.312;2023-08-12T05:09:00;142454.06;;;17.13;100.00
788;BME280;16074;42.708;23.312;2023-08-12T05:11:30;142433.44;;;17.05;100.00
788;BME280;16074;42.708;23.312;2023-08-12T05:13:58;142431.03;;;17.04;100.00
788;BME280;16074;42.708;23.312;2023-08-12T05:16:26;142448.00;;;17.11;100.00
788;BME280;16074;42.708;23.312;2023-08-12T05:18:56;142472.22;;;17.21;100.00
788;BME280;16074;42.708;23.312;2023-08-12T05:21:26;142471.03;;;17.20;100.00
788;BME280;16074;42.708;23.312;2023-08-12T05:23:54;142486.78;;;17.27;100.00
788;BME280;16074;42.708;23.312;2023-08-12T05:26:24;142484.34;;;17.26;100.00
788;BME280;16074;42.708;23.312;2023-08-12T05:28:52;142507.41;;;17.35;100.00
788;BME280;16074;42.708;23.312;2023-08-12T05:31:21;142537.72;;;17.48;100.00
788;BME280;16074;42.708;23.312;2023-08-12T05:33:49;142546.19;;;17.51;100.00
788;BME280;16074;42.708;23.312;2023-08-12T05:36:19;142524.38;;;17.42;100.00
788;BME280;16074;42.708;23.312;2023-08-12T05:38:47;142555.88;;;17.55;100.00
788;BME280;16074;42.708;23.312;2023-08-12T05:41:15;142559.50;;;17.57;100.00
788;BME280;16074;42.708;23.312;2023-08-12T05:43:45;142554.69;;;17.55;100.00
788;BME280;16074;42.708;23.312;2023-08-12T05:46:13;142528.03;;;17.44;100.00
788;BME280;16074;42.708;23.312;2023-08-12T05:48:42;142546.19;;;17.51;100.00
788;BME280;16074;42.708;23.312;2023-08-12T05:51:10;142564.34;;;17.59;100.00
788;BME280;16074;42.708;23.312;2023-08-12T05:53:39;142519.53;;;17.40;100.00
788;BME280;16074;42.708;23.312;2023-08-12T05:56:07;142558.31;;;17.56;100.00
788;BME280;16074;42.708;23.312;2023-08-12T05:58:36;142598.28;;;17.73;100.00
788;BME280;16074;42.708;23.312;2023-08-12T06:01:05;142606.78;;;17.76;100.00
788;BME280;16074;42.708;23.312;2023-08-12T06:03:34;142623.78;;;17.83;100.00
788;BME280;16074;42.708;23.312;2023-08-12T06:06:02;142616.50;;;17.80;100.00
788;BME280;16074;42.708;23.312;2023-08-12T06:08:31;142626.19;;;17.84;100.00
788;BME280;16074;42.708;23.312;2023-08-12T06:10:59;142679.50;;;18.06;100.00
788;BME280;16074;42.708;23.312;2023-08-12T06:13:27;142692.88;;;18.11;100.00
788;BME280;16074;42.708;23.312;2023-08-12T06:15:56;142732.91;;;18.28;100.00
788;BME280;16074;42.708;23.312;2023-08-12T06:18:26;142738.97;;;18.30;100.00
788;BME280;16074;42.708;23.312;2023-08-12T06:20:54;142712.22;;;18.19;100.00
788;BME280;16074;42.708;23.312;2023-08-12T06:23:23;142736.53;;;18.29;100.00
788;BME280;16074;42.708;23.312;2023-08-12T06:25:53;142758.38;;;18.38;100.00
788;BME280;16074;42.708;23.312;2023-08-12T06:28:21;142789.91;;;18.51;100.00
788;BME280;16074;42.708;23.312;2023-08-12T06:30:50;142814.19;;;18.61;100.00
788;BME280;16074;42.708;23.312;2023-08-12T06:33:18;142840.81;;;18.72;100.00
788;BME280;16074;42.708;23.312;2023-08-12T06:35:49;142883.31;;;18.90;100.00
788;BME280;16074;42.708;23.312;2023-08-12T06:38:18;142916.06;;;19.03;100.00
788;BME280;16074;42.708;23.312;2023-08-12T06:40:47;142945.25;;;19.15;100.00
788;BME280;16074;42.708;23.312;2023-08-12T06:43:15;142953.72;;;19.19;100.00
788;BME280;16074;42.708;23.312;2023-08-12T06:45:43;142976.75;;;19.28;100.00
788;BME280;16074;42.708;23.312;2023-08-12T06:48:12;143031.41;;;19.50;100.00
788;BME280;16074;42.708;23.312;2023-08-12T06:50:40;143078.75;;;19.70;100.00
788;BME280;16074;42.708;23.312;2023-08-12T06:53:10;143130.97;;;19.91;100.00
788;BME280;16074;42.708;23.312;2023-08-12T06:55:43;143171.06;;;20.08;100.00
788;BME280;16074;42.708;23.312;2023-08-12T06:58:12;143216.00;;;20.26;100.00
788;BME280;16074;42.708;23.312;2023-08-12T07:00:41;143263.38;;;20.45;99.37
788;BME280;16074;42.708;23.312;2023-08-12T07:03:09;143279.19;;;20.52;97.12
788;BME280;16074;42.708;23.312;2023-08-12T07:05:38;143301.06;;;20.61;94.61
788;BME280;16074;42.708;23.312;2023-08-12T07:08:06;143335.06;;;20.75;93.96
788;BME280;16074;42.708;23.312;2023-08-12T07:10:37;143350.94;;;20.81;93.51
788;BME280;16074;42.708;23.312;2023-08-12T07:13:06;143421.41;;;21.10;94.85
788;BME280;16074;42.708;23.312;2023-08-12T07:15:34;143453.00;;;21.23;90.02
788;BME280;16074;42.708;23.312;2023-08-12T07:18:03;143524.75;;;21.53;85.95
788;BME280;16074;42.708;23.312;2023-08-12T07:20:32;143585.63;;;21.77;82.05
788;BME280;16074;42.708;23.312;2023-08-12T07:23:00;143663.44;;;22.09;80.92
788;BME280;16074;42.708;23.312;2023-08-12T07:25:29;143736.47;;;22.39;77.48
788;BME280;16074;42.708;23.312;2023-08-12T07:27:59;143827.75;;;22.77;74.64
788;BME280;16074;42.708;23.312;2023-08-12T07:30:27;143925.22;;;23.16;63.29
788;BME280;16074;42.708;23.312;2023-08-12T07:32:56;143904.50;;;23.08;64.75
788;BME280;16074;42.708;23.312;2023-08-12T07:35:24;143999.50;;;23.47;65.42
788;BME280;16074;42.708;23.312;2023-08-12T07:37:52;144076.25;;;23.78;64.67
788;BME280;16074;42.708;23.312;2023-08-12T07:40:21;144171.31;;;24.17;62.84
788;BME280;16074;42.708;23.312;2023-08-12T07:42:49;144181.06;;;24.21;62.03
788;BME280;16074;42.708;23.312;2023-08-12T07:45:19;144310.31;;;24.74;60.71
788;BME280;16074;42.708;23.312;2023-08-12T07:47:48;144373.69;;;25.00;57.67
788;BME280;16074;42.708;23.312;2023-08-12T07:50:17;144459.16;;;25.35;57.16
788;BME280;16074;42.708;23.312;2023-08-12T07:52:45;144482.31;;;25.44;58.01
788;BME280;16074;42.708;23.312;2023-08-12T07:55:14;144506.72;;;25.54;54.56
788;BME280;16074;42.708;23.312;2023-08-12T07:57:42;144478.66;;;25.43;55.17
788;BME280;16074;42.708;23.312;2023-08-12T08:00:11;144515.22;;;25.57;55.14
788;BME280;16074;42.708;23.312;2023-08-12T08:02:41;144592.16;;;25.89;52.29
788;BME280;16074;42.708;23.312;2023-08-12T08:05:09;144566.50;;;25.78;52.34
788;BME280;16074;42.708;23.312;2023-08-12T08:07:38;144621.44;;;26.01;51.89
788;BME280;16074;42.708;23.312;2023-08-12T08:10:07;144697.16;;;26.32;50.83
788;BME280;16074;42.708;23.312;2023-08-12T08:12:35;144765.53;;;26.60;49.45
788;BME280;16074;42.708;23.312;2023-08-12T08:15:04;144868.09;;;27.01;48.57
788;BME280;16074;42.708;23.312;2023-08-12T08:17:33;144929.25;;;27.26;47.02
788;BME280;16074;42.708;23.312;2023-08-12T08:20:07;144934.13;;;27.28;46.68
788;BME280;16074;42.708;23.312;2023-08-12T08:22:37;145056.38;;;27.78;44.92
788;BME280;16074;42.708;23.312;2023-08-12T08:25:07;145099.13;;;27.96;45.40
788;BME280;16074;42.708;23.312;2023-08-12T08:27:35;145172.50;;;28.25;45.60
788;BME280;16074;42.708;23.312;2023-08-12T08:30:04;145210.44;;;28.41;43.22
788;BME280;16074;42.708;23.312;2023-08-12T08:32:33;145286.22;;;28.72;44.01
788;BME280;16074;42.708;23.312;2023-08-12T08:35:01;145280.13;;;28.69;43.05
788;BME280;16074;42.708;23.312;2023-08-12T08:37:31;145323.00;;;28.87;41.91
788;BME280;16074;42.708;23.312;2023-08-12T08:39:59;145373.13;;;29.07;41.04
788;BME280;16074;42.708;23.312;2023-08-12T08:42:28;145403.69;;;29.20;40.69
788;BME280;16074;42.708;23.312;2023-08-12T08:45:00;145464.94;;;29.44;40.82
788;BME280;16074;42.708;23.312;2023-08-12T08:47:29;145495.53;;;29.57;40.82
788;BME280;16074;42.708;23.312;2023-08-12T08:49:58;145559.19;;;29.83;40.93
788;BME280;16074;42.708;23.312;2023-08-12T08:52:28;145638.81;;;30.15;39.84
788;BME280;16074;42.708;23.312;2023-08-12T08:55:00;145655.97;;;30.22;39.53
788;BME280;16074;42.708;23.312;2023-08-12T08:57:33;145660.88;;;30.24;39.27
788;BME280;16074;42.708;23.312;2023-08-12T09:00:14;145662.06;;;30.25;38.38
788;BME280;16074;42.708;23.312;2023-08-12T09:02:46;145662.06;;;30.25;38.96
788;BME280;16074;42.708;23.312;2023-08-12T09:05:15;145633.91;;;30.13;38.24
788;BME280;16074;42.708;23.312;2023-08-12T09:07:44;145698.81;;;30.40;38.15
788;BME280;16074;42.708;23.312;2023-08-12T09:10:15;145696.38;;;30.39;38.06
788;BME280;16074;42.708;23.312;2023-08-12T09:12:45;145730.66;;;30.52;38.74
788;BME280;16074;42.708;23.312;2023-08-12T09:15:16;145774.78;;;30.70;38.66
788;BME280;16074;42.708;23.312;2023-08-12T09:17:45;145772.31;;;30.69;37.60
788;BME280;16074;42.708;23.312;2023-08-12T09:20:14;145811.53;;;30.85;37.61
788;BME280;16074;42.708;23.312;2023-08-12T09:22:43;145668.22;;;30.27;37.67
788;BME280;16074;42.708;23.312;2023-08-12T09:25:11;145520.00;;;29.67;38.75
788;BME280;16074;42.708;23.312;2023-08-12T09:27:41;145282.59;;;28.70;40.49
788;BME280;16074;42.708;23.312;2023-08-12T09:30:10;145467.41;;;29.45;39.19
788;BME280;16074;42.708;23.312;2023-08-12T09:32:40;145407.41;;;29.21;40.76
788;BME280;16074;42.708;23.312;2023-08-12T09:35:15;145425.72;;;29.28;39.25
788;BME280;16074;42.708;23.312;2023-08-12T09:37:44;145392.72;;;29.15;39.25
788;BME280;16074;42.708;23.312;2023-08-12T09:40:13;145208.00;;;28.40;41.30
788;BME280;16074;42.708;23.312;2023-08-12T09:42:45;145349.91;;;28.98;40.37
788;BME280;16074;42.708;23.312;2023-08-12T09:45:14;145439.22;;;29.34;40.62
788;BME280;16074;42.708;23.312;2023-08-12T09:47:43;145504.13;;;29.60;39.73
788;BME280;16074;42.708;23.312;2023-08-12T09:50:12;145589.78;;;29.95;39.87
788;BME280;16074;42.708;23.312;2023-08-12T09:52:40;145653.50;;;30.21;38.18
788;BME280;16074;42.708;23.312;2023-08-12T09:55:09;145715.97;;;30.47;37.71
788;BME280;16074;42.708;23.312;2023-08-12T09:57:40;145821.34;;;30.89;36.49
788;BME280;16074;42.708;23.312;2023-08-12T10:00:13;145896.13;;;31.20;36.97
788;BME280;16074;42.708;23.312;2023-08-12T10:02:44;145969.63;;;31.50;36.43
788;BME280;16074;42.708;23.312;2023-08-12T10:05:17;146039.53;;;31.78;36.65
788;BME280;16074;42.708;23.312;2023-08-12T10:07:47;146111.88;;;32.07;35.50
788;BME280;16074;42.708;23.312;2023-08-12T10:10:16;146196.53;;;32.42;35.05
788;BME280;16074;42.708;23.312;2023-08-12T10:12:45;146206.34;;;32.46;33.59
788;BME280;16074;42.708;23.312;2023-08-12T10:15:16;146162.22;;;32.28;34.33
788;BME280;16074;42.708;23.312;2023-08-12T10:17:45;146114.31;;;32.08;34.58
788;BME280;16074;42.708;23.312;2023-08-12T10:20:19;146076.31;;;31.93;34.97
788;BME280;16074;42.708;23.312;2023-08-12T10:22:49;146088.59;;;31.98;35.09
788;BME280;16074;42.708;23.312;2023-08-12T10:25:19;146170.78;;;32.31;34.14
788;BME280;16074;42.708;23.312;2023-08-12T10:27:49;146176.91;;;32.34;34.01
788;BME280;16074;42.708;23.312;2023-08-12T10:30:20;146197.78;;;32.42;33.93
788;BME280;16074;42.708;23.312;2023-08-12T10:32:49;146203.88;;;32.45;34.36
788;BME280;16074;42.708;23.312;2023-08-12T10:35:18;146283.66;;;32.77;34.09
788;BME280;16074;42.708;23.312;2023-08-12T10:37:48;146391.69;;;33.21;33.60
788;BME280;16074;42.708;23.312;2023-08-12T10:40:22;146520.63;;;33.73;33.31
788;BME280;16074;42.708;23.312;2023-08-12T10:42:50;146652.06;;;34.27;32.89
788;BME280;16074;42.708;23.312;2023-08-12T10:45:20;146810.53;;;34.91;31.21
788;BME280;16074;42.708;23.312;2023-08-12T10:47:51;146912.59;;;35.32;30.01
788;BME280;16074;42.708;23.312;2023-08-12T10:50:21;147020.78;;;35.76;29.59
788;BME280;16074;42.708;23.312;2023-08-12T10:52:52;147083.47;;;36.01;29.51
788;BME280;16074;42.708;23.312;2023-08-12T10:55:21;147100.75;;;36.08;29.79
788;BME280;16074;42.708;23.312;2023-08-12T10:57:51;147183.16;;;36.42;29.36
788;BME280;16074;42.708;23.312;2023-08-12T11:00:26;147226.22;;;36.59;28.85
788;BME280;16074;42.708;23.312;2023-08-12T11:02:56;147120.44;;;36.16;29.19
788;BME280;16074;42.708;23.312;2023-08-12T11:05:35;147224.97;;;36.59;28.77
788;BME280;16074;42.708;23.312;2023-08-12T11:08:05;147274.19;;;36.79;28.67
788;BME280;16074;42.708;23.312;2023-08-12T11:10:34;147274.19;;;36.79;27.83
788;BME280;16074;42.708;23.312;2023-08-12T11:13:03;147164.66;;;36.34;27.97
788;BME280;16074;42.708;23.312;2023-08-12T11:15:35;147194.19;;;36.46;28.46
788;BME280;16074;42.708;23.312;2023-08-12T11:18:06;147313.63;;;36.95;25.94
788;BME280;16074;42.708;23.312;2023-08-12T11:20:35;147373.91;;;37.19;25.74
788;BME280;16074;42.708;23.312;2023-08-12T11:23:06;147456.44;;;37.52;25.00
788;BME280;16074;42.708;23.312;2023-08-12T11:25:37;147410.84;;;37.34;25.42
788;BME280;16074;42.708;23.312;2023-08-12T11:28:06;147437.94;;;37.45;25.63
788;BME280;16074;42.708;23.312;2023-08-12T11:30:36;147530.25;;;37.82;24.53
788;BME280;16074;42.708;23.312;2023-08-12T11:33:04;147623.91;;;38.20;24.26
788;BME280;16074;42.708;23.312;2023-08-12T11:35:34;147585.69;;;38.05;25.15
788;BME280;16074;42.708;23.312;2023-08-12T11:38:05;147637.44;;;38.26;24.62
788;BME280;16074;42.708;23.312;2023-08-12T11:40:33;147713.81;;;38.56;24.39
788;BME280;16074;42.708;23.312;2023-08-12T11:43:02;147723.69;;;38.60;24.67
788;BME280;16074;42.708;23.312;2023-08-12T11:45:33;147843.22;;;39.09;24.46
788;BME280;16074;42.708;23.312;2023-08-12T11:48:03;147918.44;;;39.39;24.84
788;BME280;16074;42.708;23.312;2023-08-12T11:50:32;147882.72;;;39.25;24.24
788;BME280;16074;42.708;23.312;2023-08-12T11:53:01;147943.09;;;39.49;24.26
788;BME280;16074;42.708;23.312;2023-08-12T11:55:29;147949.25;;;39.52;24.58
788;BME280;16074;42.708;23.312;2023-08-12T11:57:58;147940.63;;;39.48;24.43
788;BME280;16074;42.708;23.312;2023-08-12T12:00:26;147885.19;;;39.26;24.74
788;BME280;16074;42.708;23.312;2023-08-12T12:02:56;147964.09;;;39.58;24.06
788;BME280;16074;42.708;23.312;2023-08-12T12:05:28;147972.75;;;39.61;24.97
788;BME280;16074;42.708;23.312;2023-08-12T12:07:58;147991.22;;;39.68;24.62
788;BME280;16074;42.708;23.312;2023-08-12T12:10:28;148043.00;;;39.89;24.53
788;BME280;16074;42.708;23.312;2023-08-12T12:13:02;148086.19;;;40.07;23.78
788;BME280;16074;42.708;23.312;2023-08-12T12:15:35;148094.78;;;40.10;24.43
788;BME280;16074;42.708;23.312;2023-08-12T12:18:09;147977.66;;;39.63;24.61
788;BME280;16074;42.708;23.312;2023-08-12T12:20:53;147833.38;;;39.05;25.06
788;BME280;16074;42.708;23.312;2023-08-12T12:23:27;147644.88;;;38.29;24.90
788;BME280;16074;42.708;23.312;2023-08-12T12:25:59;147572.19;;;37.99;25.50
788;BME280;16074;42.708;23.312;2023-08-12T12:28:28;147526.59;;;37.81;26.21
788;BME280;16074;42.708;23.312;2023-08-12T12:30:56;147520.41;;;37.78;26.05
788;BME280;16074;42.708;23.312;2023-08-12T12:33:25;147429.34;;;37.41;26.44
788;BME280;16074;42.708;23.312;2023-08-12T12:35:55;147335.78;;;37.03;26.92
788;BME280;16074;42.708;23.312;2023-08-12T12:38:27;147392.34;;;37.26;27.25
788;BME280;16074;42.708;23.312;2023-08-12T12:40:56;147463.81;;;37.55;26.72
788;BME280;16074;42.708;23.312;2023-08-12T12:43:24;147557.41;;;37.93;26.22
788;BME280;16074;42.708;23.312;2023-08-12T12:45:53;147569.72;;;37.98;25.60
788;BME280;16074;42.708;23.312;2023-08-12T12:48:21;147500.69;;;37.70;26.57
788;BME280;16074;42.708;23.312;2023-08-12T12:50:49;147357.88;;;37.12;26.57
788;BME280;16074;42.708;23.312;2023-08-12T12:53:19;147211.47;;;36.53;26.76
788;BME280;16074;42.708;23.312;2023-08-12T12:55:48;147108.13;;;36.11;27.10
788;BME280;16074;42.708;23.312;2023-08-12T12:58:16;146976.50;;;35.58;28.78
788;BME280;16074;42.708;23.312;2023-08-12T13:00:45;146869.53;;;35.15;29.17
788;BME280;16074;42.708;23.312;2023-08-12T13:03:13;146746.63;;;34.65;28.73
788;BME280;16074;42.708;23.312;2023-08-12T13:05:42;146653.25;;;34.27;29.55